Time;durP1;ratioP1;P1;durP2;ratioP2;P2;SDS_P1;SDS_P2;PMS_P1;PMS_P2;Temp;Humidity;BMP_temperature;BMP_pressure;BME280_temperature;BME280_humidity;BME280_pressure;Samples;Min_cycle;Max_cycle;Signal;HPM_P1;HPM_P2
2023/06/19 00:04:40;;;;;;;2.00;1.80;;;30.10;48.70;;;;;;10456547;28;20041;-33
2023/06/19 00:09:42;;;;;;;2.25;1.83;;;30.20;48.40;;;;;;10455377;28;20130;-33
2023/06/19 00:14:45;;;;;;;2.80;1.77;;;30.30;48.50;;;;;;10454340;28;20065;-34
2023/06/19 00:19:48;;;;;;;3.47;1.30;;;30.20;48.80;;;;;;10449557;28;20543;-36
2023/06/19 00:24:51;;;;;;;2.17;1.20;;;30.10;49.40;;;;;;10455198;28;20095;-34
2023/06/19 00:29:57;;;;;;;1.80;1.48;;;30.00;49.30;;;;;;10455831;28;20142;-37
2023/06/19 00:35:00;;;;;;;1.75;1.30;;;29.70;50.00;;;;;;10454320;28;20448;-34
2023/06/19 00:40:03;;;;;;;2.08;1.40;;;29.80;49.80;;;;;;10453465;28;20437;-32
2023/06/19 00:45:07;;;;;;;1.65;1.10;;;30.00;49.50;;;;;;10460921;28;20166;-34
2023/06/19 00:50:10;;;;;;;1.65;1.30;;;29.80;49.80;;;;;;10452960;28;20041;-36
2023/06/19 00:55:12;;;;;;;2.50;1.30;;;30.10;49.50;;;;;;10450868;28;20080;-34
2023/06/19 01:00:17;;;;;;;4.80;1.30;;;30.10;49.40;;;;;;10451081;28;20048;-35
2023/06/19 01:05:20;;;;;;;1.77;1.10;;;30.00;49.70;;;;;;10452718;28;20482;-32
2023/06/19 01:10:29;;;;;;;2.97;1.10;;;30.10;49.60;;;;;;10444953;28;20052;-32
2023/06/19 01:15:33;;;;;;;2.60;1.50;;;30.10;49.70;;;;;;10448714;28;20106;-34
2023/06/19 01:20:38;;;;;;;3.42;1.23;;;30.00;49.90;;;;;;10447542;28;20515;-33
2023/06/19 01:25:41;;;;;;;2.10;1.65;;;30.10;49.70;;;;;;10449276;28;20728;-33
2023/06/19 01:30:43;;;;;;;3.55;1.30;;;30.10;49.70;;;;;;10452502;28;20131;-34
2023/06/19 01:35:47;;;;;;;1.83;1.50;;;30.00;50.00;;;;;;10453137;28;20099;-32
2023/06/19 01:40:51;;;;;;;4.38;2.78;;;29.90;50.30;;;;;;10451831;28;20128;-33
2023/06/19 01:45:53;;;;;;;1.63;1.30;;;29.70;50.60;;;;;;10462113;28;20110;-33
2023/06/19 01:50:55;;;;;;;2.30;1.67;;;29.80;50.50;;;;;;10451665;28;20049;-35
2023/06/19 01:55:59;;;;;;;3.45;2.13;;;29.50;51.40;;;;;;10451361;28;20482;-32
2023/06/19 02:01:01;;;;;;;3.05;2.13;;;29.30;51.90;;;;;;10451693;28;20083;-32
2023/06/19 02:06:03;;;;;;;4.65;2.17;;;28.90;52.90;;;;;;10451124;28;20541;-33
2023/06/19 02:11:08;;;;;;;3.83;3.10;;;29.30;52.10;;;;;;10462065;28;20049;-36
2023/06/19 02:16:10;;;;;;;5.38;3.50;;;29.10;52.90;;;;;;10464467;28;20067;-35
2023/06/19 02:21:11;;;;;;;9.02;6.75;;;29.00;53.30;;;;;;10469761;28;20036;-40
2023/06/19 02:26:15;;;;;;;9.45;6.60;;;28.40;54.60;;;;;;10454762;28;20553;-35
2023/06/19 02:31:16;;;;;;;8.73;4.57;;;28.00;56.10;;;;;;10450048;28;20071;-33
2023/06/19 02:36:19;;;;;;;10.20;7.90;;;28.00;56.40;;;;;;10450173;28;20084;-34
2023/06/19 02:41:22;;;;;;;15.20;10.02;;;27.60;57.30;;;;;;10450482;28;20045;-32
2023/06/19 02:46:24;;;;;;;12.73;8.23;;;27.50;57.80;;;;;;10451821;28;20465;-33
2023/06/19 02:51:26;;;;;;;7.53;4.63;;;26.50;60.50;;;;;;10447212;28;20408;-31
2023/06/19 02:56:29;;;;;;;13.32;8.45;;;27.70;57.40;;;;;;10449922;28;20683;-34
2023/06/19 03:15:29;;;;;;;11.70;6.95;;;27.00;58.80;;;;;;10488895;27;1968896;-34
2023/06/19 03:20:30;;;;;;;13.23;8.38;;;27.30;58.50;;;;;;10525311;28;20082;-34
2023/06/19 03:25:34;;;;;;;14.10;9.98;;;27.10;58.70;;;;;;10510508;28;20040;-34
2023/06/19 03:30:37;;;;;;;10.80;6.30;;;27.00;59.10;;;;;;10525334;28;20502;-35
2023/06/19 03:35:40;;;;;;;10.93;6.85;;;27.90;57.00;;;;;;10508533;28;20066;-32
2023/06/19 03:40:42;;;;;;;10.23;4.40;;;27.60;57.60;;;;;;10526396;28;20049;-37
2023/06/19 03:45:45;;;;;;;8.18;4.78;;;27.20;58.40;;;;;;10525877;28;20044;-36
2023/06/19 03:50:47;;;;;;;8.65;4.78;;;26.80;59.40;;;;;;10523897;28;20044;-35
2023/06/19 03:55:49;;;;;;;6.90;4.35;;;26.60;59.80;;;;;;10516981;28;20477;-30
2023/06/19 04:00:52;;;;;;;9.00;4.90;;;27.10;57.90;;;;;;10519427;28;20074;-32
2023/06/19 04:05:54;;;;;;;11.18;5.38;;;27.10;58.60;;;;;;10517700;28;20408;-32
2023/06/19 04:10:56;;;;;;;8.23;4.65;;;26.90;58.20;;;;;;10519726;28;20198;-32
2023/06/19 04:15:59;;;;;;;6.50;3.83;;;26.50;59.80;;;;;;10506370;28;20052;-32
2023/06/19 04:21:01;;;;;;;4.50;3.00;;;27.00;58.80;;;;;;10507068;28;20044;-34
2023/06/19 04:26:03;;;;;;;6.57;2.92;;;27.70;56.80;;;;;;10492384;28;20144;-33
2023/06/19 04:31:07;;;;;;;15.40;8.20;;;28.50;55.00;;;;;;10492556;28;20048;-36
2023/06/19 04:36:09;;;;;;;23.02;11.27;;;26.00;60.00;;;;;;10478430;28;20091;-33
2023/06/19 04:41:11;;;;;;;16.23;9.13;;;23.10;68.60;;;;;;10466681;28;20131;-36
2023/06/19 04:46:20;;;;;;;16.05;8.40;;;23.80;67.40;;;;;;10491113;28;20083;-36
2023/06/19 04:51:21;;;;;;;18.85;10.73;;;23.30;68.90;;;;;;10480937;28;20152;-33
2023/06/19 04:56:23;;;;;;;;;;;22.80;71.20;;;;;;10486259;28;20452;-33
2023/06/19 05:01:28;;;;;;;11.32;6.90;;;21.30;76.60;;;;;;10472345;28;19921;-32
2023/06/19 05:06:30;;;;;;;9.60;5.45;;;23.80;70.00;;;;;;10489358;28;20036;-37
2023/06/19 05:11:32;;;;;;;10.80;4.90;;;25.50;63.60;;;;;;10486155;28;20397;-34
2023/06/19 05:16:36;;;;;;;13.27;7.88;;;26.10;61.80;;;;;;10484674;28;20468;-36
2023/06/19 05:21:37;;;;;;;14.73;8.18;;;26.00;61.30;;;;;;10480649;28;20064;-34
2023/06/19 05:26:39;;;;;;;8.88;4.90;;;26.10;60.70;;;;;;10484556;28;20164;-35
2023/06/19 05:31:43;;;;;;;11.98;6.45;;;26.70;59.10;;;;;;10472375;28;20144;-35
2023/06/19 05:36:46;;;;;;;9.48;4.43;;;26.20;60.20;;;;;;10480028;28;20041;-34
2023/06/19 05:41:48;;;;;;;7.28;3.72;;;26.00;61.60;;;;;;10476814;28;20059;-32
2023/06/19 05:46:52;;;;;;;7.72;4.70;;;27.40;57.40;;;;;;10485011;28;20068;-34
2023/06/19 05:51:58;;;;;;;14.00;8.23;;;27.20;56.70;;;;;;10455887;28;20106;-36
2023/06/19 05:57:00;;;;;;;12.07;6.40;;;26.00;59.40;;;;;;10473056;28;20132;-40
2023/06/19 06:02:05;;;;;;;11.40;4.95;;;26.30;59.60;;;;;;10458820;28;20140;-35
2023/06/19 06:07:07;;;;;;;11.60;6.05;;;26.50;59.00;;;;;;10479933;28;20509;-34
2023/06/19 06:12:09;;;;;;;11.40;7.38;;;26.00;60.00;;;;;;10472957;28;20063;-33
2023/06/19 06:17:13;;;;;;;10.27;5.72;;;25.20;60.80;;;;;;10489527;28;20072;-35
2023/06/19 06:22:14;;;;;;;12.57;6.85;;;27.00;58.80;;;;;;10480798;28;20622;-34
2023/06/19 06:27:17;;;;;;;17.92;7.75;;;25.40;61.30;;;;;;10453809;28;20048;-34
2023/06/19 06:32:20;;;;;;;13.80;7.68;;;24.80;62.70;;;;;;10470742;28;20041;-35
2023/06/19 06:37:23;;;;;;;10.40;4.75;;;26.30;58.20;;;;;;10459836;28;20481;-34
2023/06/19 06:42:25;;;;;;;10.07;5.60;;;26.90;57.70;;;;;;10462600;28;20060;-33
2023/06/19 06:47:28;;;;;;;6.35;3.40;;;25.40;61.60;;;;;;10458956;28;20437;-32
2023/06/19 06:52:30;;;;;;;8.95;5.00;;;26.70;58.90;;;;;;10469275;28;20083;-36
2023/06/19 06:57:32;;;;;;;11.48;7.00;;;25.70;60.10;;;;;;10475648;28;20534;-33
2023/06/19 07:02:35;;;;;;;6.13;3.88;;;24.90;61.40;;;;;;10473375;28;20072;-35
2023/06/19 07:07:37;;;;;;;11.98;7.53;;;26.10;59.90;;;;;;10469223;28;20071;-34
2023/06/19 07:12:46;;;;;;;15.95;7.43;;;25.40;59.40;;;;;;10475980;28;20131;-34
2023/06/19 07:17:49;;;;;;;7.53;4.13;;;24.70;62.60;;;;;;10472733;28;20049;-33
2023/06/19 07:22:53;;;;;;;9.00;5.85;;;25.60;60.70;;;;;;10470653;28;20098;-34
2023/06/19 07:27:55;;;;;;;11.60;6.25;;;25.60;60.20;;;;;;10477333;28;20048;-35
2023/06/19 07:32:58;;;;;;;12.18;7.55;;;26.40;58.40;;;;;;10483295;28;20056;-33
2023/06/19 07:38:00;;;;;;;11.98;6.57;;;25.50;59.60;;;;;;10487488;28;20474;-32
2023/06/19 07:43:02;;;;;;;9.98;7.13;;;24.60;62.50;;;;;;10483421;28;20045;-34
2023/06/19 07:48:05;;;;;;;11.93;5.43;;;24.50;63.00;;;;;;10467677;28;20163;-36
2023/06/19 07:53:07;;;;;;;11.10;5.05;;;25.70;60.00;;;;;;10475620;28;20110;-38
2023/06/19 07:58:09;;;;;;;10.93;5.60;;;25.50;60.20;;;;;;10476509;28;20095;-33
2023/06/19 08:03:12;;;;;;;;;;;24.10;64.80;;;;;;10488085;28;20114;-37
2023/06/19 08:08:14;;;;;;;12.82;5.63;;;26.20;58.90;;;;;;10494148;28;19920;-35
2023/06/19 08:13:16;;;;;;;7.50;4.60;;;26.10;59.30;;;;;;10484417;28;20048;-31
2023/06/19 08:18:21;;;;;;;8.80;3.97;;;26.00;59.50;;;;;;10487447;28;20156;-34
2023/06/19 08:23:23;;;;;;;12.05;5.50;;;27.00;57.10;;;;;;10474666;28;20746;-32
2023/06/19 08:28:25;;;;;;;9.07;5.07;;;26.90;57.90;;;;;;10483651;28;20120;-34
2023/06/19 08:33:28;;;;;;;9.32;4.53;;;26.70;57.60;;;;;;10480678;28;20106;-31
2023/06/19 08:38:30;;;;;;;11.10;4.97;;;26.30;58.90;;;;;;10462319;28;20099;-34
2023/06/19 08:43:32;;;;;;;8.18;3.92;;;26.30;58.20;;;;;;10480270;28;20045;-35
2023/06/19 08:48:37;;;;;;;11.73;4.88;;;27.20;56.30;;;;;;10475550;28;20100;-34
2023/06/19 08:53:50;;;;;;;14.20;7.43;;;26.40;57.90;;;;;;10476737;28;20075;-35
2023/06/19 08:58:52;;;;;;;7.55;4.55;;;25.80;59.30;;;;;;10481057;28;20109;-35
2023/06/19 09:03:55;;;;;;;12.25;7.03;;;25.10;61.60;;;;;;10482328;28;20105;-32
2023/06/19 09:09:00;;;;;;;7.53;4.25;;;25.90;59.30;;;;;;10481230;28;20139;-40
2023/06/19 09:14:02;;;;;;;10.05;4.80;;;26.30;58.70;;;;;;10476069;28;20412;-35
2023/06/19 09:19:05;;;;;;;10.00;4.65;;;26.30;58.50;;;;;;10489073;28;20132;-36
2023/06/19 09:24:08;;;;;;;10.88;6.45;;;26.70;57.80;;;;;;10475366;28;20694;-32
2023/06/19 09:29:12;;;;;;;9.45;5.80;;;26.30;57.50;;;;;;10489391;28;20463;-36
2023/06/19 09:34:15;;;;;;;10.15;4.38;;;25.60;60.20;;;;;;10489273;28;20449;-33
2023/06/19 09:39:18;;;;;;;8.80;4.00;;;26.50;57.80;;;;;;10491722;28;20438;-32
2023/06/19 09:44:23;;;;;;;8.40;4.97;;;25.70;60.30;;;;;;10490564;28;20044;-34
2023/06/19 09:49:31;;;;;;;8.88;4.50;;;26.40;58.40;;;;;;10491938;28;20049;-33
2023/06/19 09:54:34;;;;;;;13.05;6.38;;;25.50;61.50;;;;;;10491182;28;20138;-32
2023/06/19 09:59:37;;;;;;;11.32;4.13;;;25.50;61.00;;;;;;10490888;28;20539;-37
2023/06/19 10:04:50;;;;;;;7.25;5.40;;;25.90;59.80;;;;;;10491115;28;20485;-36
2023/06/19 10:09:59;;;;;;;13.20;6.15;;;25.10;62.70;;;;;;10489565;28;20053;-32
2023/06/19 10:15:12;;;;;;;9.48;4.63;;;26.10;59.30;;;;;;10483626;28;20080;-32
2023/06/19 10:20:31;;;;;;;9.35;4.55;;;25.70;60.70;;;;;;10489053;28;20084;-36
2023/06/19 10:25:35;;;;;;;6.22;3.55;;;27.00;57.20;;;;;;10462837;28;20040;-33
2023/06/19 10:30:37;;;;;;;6.88;3.70;;;26.80;58.50;;;;;;10484723;28;20064;-38
2023/06/19 10:35:40;;;;;;;6.90;4.60;;;27.40;56.50;;;;;;10480251;28;20097;-35
2023/06/19 10:40:43;;;;;;;7.82;5.28;;;26.70;57.70;;;;;;10461693;28;20051;-32
2023/06/19 10:45:45;;;;;;;9.60;5.00;;;25.60;60.40;;;;;;10476234;28;20124;-34
2023/06/19 10:50:49;;;;;;;13.90;6.03;;;26.20;58.70;;;;;;10476308;28;20075;-33
2023/06/19 10:55:56;;;;;;;7.43;4.50;;;26.60;57.30;;;;;;10468892;28;20071;-32
2023/06/19 11:00:59;;;;;;;10.32;5.50;;;25.90;58.60;;;;;;10479536;28;20080;-34
2023/06/19 11:06:02;;;;;;;8.38;4.78;;;26.30;58.00;;;;;;10486155;28;20045;-40
2023/06/19 11:11:04;;;;;;;13.35;7.68;;;25.90;59.50;;;;;;10483093;28;20041;-39
2023/06/19 11:16:06;;;;;;;10.77;7.85;;;25.70;59.40;;;;;;10477360;28;20092;-39
2023/06/19 11:21:09;;;;;;;12.70;8.00;;;25.70;59.80;;;;;;10465594;28;20132;-39
2023/06/19 11:26:12;;;;;;;13.85;8.23;;;26.00;59.60;;;;;;10453014;28;20358;-40
2023/06/19 11:31:15;;;;;;;13.30;7.95;;;26.50;58.60;;;;;;10470340;28;20106;-35
2023/06/19 11:36:20;;;;;;;16.42;9.85;;;26.10;59.20;;;;;;10480443;28;20503;-38
2023/06/19 11:41:28;;;;;;;14.27;7.50;;;25.50;59.70;;;;;;10484801;28;20049;-37
2023/06/19 11:46:31;;;;;;;10.20;7.25;;;26.50;58.00;;;;;;10487751;28;20064;-35
2023/06/19 11:51:34;;;;;;;8.02;6.00;;;26.50;57.90;;;;;;10473804;28;20064;-36
2023/06/19 11:56:36;;;;;;;9.05;5.57;;;26.70;57.40;;;;;;10493736;28;20087;-40
2023/06/19 12:01:38;;;;;;;10.20;5.50;;;26.70;56.70;;;;;;10471571;28;20510;-37
2023/06/19 12:06:41;;;;;;;6.95;4.47;;;26.20;57.40;;;;;;10483355;28;20493;-36
2023/06/19 12:11:43;;;;;;;7.55;3.67;;;26.30;54.30;;;;;;10469626;28;20094;-34
2023/06/19 12:16:46;;;;;;;6.55;3.80;;;26.30;53.60;;;;;;10488368;28;20091;-32
2023/06/19 12:21:50;;;;;;;5.07;3.80;;;26.10;53.40;;;;;;10477957;28;20080;-32
2023/06/19 12:26:53;;;;;;;5.38;3.50;;;26.40;53.00;;;;;;10474890;28;20405;-36
2023/06/19 12:32:01;;;;;;;7.50;4.03;;;27.10;53.30;;;;;;10493007;28;20603;-33
2023/06/19 12:37:04;;;;;;;7.50;3.90;;;27.00;53.20;;;;;;10477171;28;20140;-34
2023/06/19 12:42:07;;;;;;;5.15;3.80;;;27.00;51.40;;;;;;10483173;28;20044;-34
2023/06/19 12:47:09;;;;;;;6.40;3.70;;;27.30;52.30;;;;;;10474585;28;20092;-36
2023/06/19 12:52:13;;;;;;;8.68;4.15;;;28.00;51.10;;;;;;10468176;28;20049;-32
2023/06/19 12:57:15;;;;;;;9.52;3.85;;;27.20;51.00;;;;;;10486742;28;20080;-35
2023/06/19 13:02:16;;;;;;;6.90;4.28;;;27.60;52.60;;;;;;10457215;28;20529;-33
2023/06/19 13:07:20;;;;;;;7.07;4.25;;;27.50;52.40;;;;;;10481587;28;20129;-37
2023/06/19 13:12:23;;;;;;;8.05;4.65;;;27.20;52.20;;;;;;10470836;28;20045;-37
2023/06/19 13:17:25;;;;;;;6.35;4.45;;;26.60;52.80;;;;;;10472448;28;20483;-35
2023/06/19 13:22:28;;;;;;;6.38;4.43;;;27.30;53.50;;;;;;10473615;28;20079;-32
2023/06/19 13:27:30;;;;;;;5.88;3.83;;;27.80;52.50;;;;;;10489184;28;20131;-34
2023/06/19 13:32:32;;;;;;;4.68;3.67;;;28.20;51.60;;;;;;10485256;28;20075;-36
2023/06/19 13:37:38;;;;;;;5.28;3.85;;;28.60;51.10;;;;;;10492418;28;20425;-34
2023/06/19 13:42:40;;;;;;;7.35;3.92;;;29.10;50.40;;;;;;10490372;28;20041;-32
2023/06/19 13:47:42;;;;;;;7.32;4.05;;;28.90;50.40;;;;;;10480958;28;20392;-35
2023/06/19 13:52:46;;;;;;;9.88;4.38;;;28.70;51.20;;;;;;10478676;28;20461;-38
2023/06/19 13:57:47;;;;;;;10.57;5.00;;;28.60;51.40;;;;;;10485489;28;20048;-39
2023/06/19 14:02:50;;;;;;;8.15;4.68;;;29.20;51.60;;;;;;10484549;28;20174;-33
2023/06/19 14:07:53;;;;;;;5.75;3.50;;;29.70;50.50;;;;;;10487644;28;20545;-35
2023/06/19 14:12:55;;;;;;;11.38;5.22;;;29.70;51.40;;;;;;10486925;28;20668;-39
2023/06/19 14:17:56;;;;;;;8.10;4.32;;;29.50;52.00;;;;;;10477409;28;20052;-29
2023/06/19 14:23:00;;;;;;;7.85;4.70;;;29.70;52.00;;;;;;10471226;28;20168;-34
2023/06/19 14:28:02;;;;;;;5.85;3.25;;;30.20;51.40;;;;;;10482331;28;20052;-34
2023/06/19 14:33:04;;;;;;;7.05;4.20;;;29.80;51.50;;;;;;10484857;28;20053;-34
2023/06/19 14:38:07;;;;;;;18.60;4.00;;;30.20;51.90;;;;;;10488351;28;20102;-32
2023/06/19 14:43:09;;;;;;;10.52;4.35;;;29.40;50.50;;;;;;10487489;28;20538;-33
2023/06/19 14:48:11;;;;;;;5.15;3.10;;;30.10;49.60;;;;;;10478395;28;20049;-34
2023/06/19 14:53:14;;;;;;;7.20;3.78;;;29.80;52.30;;;;;;10483644;28;20056;-34
2023/06/19 14:58:16;;;;;;;6.43;3.90;;;30.00;51.80;;;;;;10486180;28;20048;-41
2023/06/19 15:03:18;;;;;;;6.88;3.72;;;30.70;47.50;;;;;;10475438;28;20124;-34
2023/06/19 15:08:23;;;;;;;5.90;3.70;;;31.10;48.40;;;;;;10484129;28;20079;-33
2023/06/19 15:13:25;;;;;;;5.60;3.05;;;31.40;46.10;;;;;;10472243;28;20052;-38
2023/06/19 15:18:27;;;;;;;10.48;3.67;;;31.80;49.30;;;;;;10480229;28;20169;-36
2023/06/19 15:23:31;;;;;;;6.47;3.40;;;31.80;46.20;;;;;;10467529;28;20072;-32
2023/06/19 15:28:34;;;;;;;7.43;3.13;;;32.10;51.00;;;;;;10481376;28;20110;-35
2023/06/19 15:33:35;;;;;;;6.85;3.38;;;32.20;46.80;;;;;;10477299;28;20049;-35
2023/06/19 15:38:39;;;;;;;5.22;2.47;;;32.60;50.20;;;;;;10458094;28;20048;-36
2023/06/19 15:43:41;;;;;;;3.85;2.30;;;33.50;45.20;;;;;;10477149;28;20057;-34
2023/06/19 15:48:44;;;;;;;3.03;2.35;;;33.60;46.80;;;;;;10472161;28;20076;-33
2023/06/19 15:53:47;;;;;;;4.32;2.42;;;33.10;48.00;;;;;;10475914;28;20056;-32
2023/06/19 15:58:50;;;;;;;4.53;2.50;;;32.90;42.10;;;;;;10476363;28;20045;-33
2023/06/19 16:03:53;;;;;;;6.38;2.90;;;33.70;51.70;;;;;;10458184;28;20065;-36
2023/06/19 16:08:56;;;;;;;4.63;2.65;;;32.70;41.00;;;;;;10485519;28;20041;-34
2023/06/19 16:13:59;;;;;;;5.65;2.88;;;33.30;49.20;;;;;;10461681;28;20092;-32
2023/06/19 16:19:01;;;;;;;3.20;2.53;;;32.30;44.40;;;;;;10471423;28;20097;-40
2023/06/19 16:24:04;;;;;;;4.07;2.63;;;34.00;53.40;;;;;;10469137;28;20175;-33
2023/06/19 16:29:06;;;;;;;4.60;2.00;;;34.30;47.00;;;;;;10476944;28;20102;-33
2023/06/19 16:34:08;;;;;;;3.17;2.30;;;34.70;49.70;;;;;;10483535;28;20052;-34
2023/06/19 16:39:14;;;;;;;4.38;2.20;;;33.80;40.70;;;;;;10468132;28;20048;-38
2023/06/19 16:44:17;;;;;;;4.43;2.33;;;33.40;50.40;;;;;;10483944;28;20053;-35
2023/06/19 16:49:20;;;;;;;4.32;2.13;;;33.20;47.60;;;;;;10472437;28;20496;-31
2023/06/19 16:54:23;;;;;;;5.00;2.47;;;32.80;49.50;;;;;;10480673;28;20555;-34
2023/06/19 16:59:25;;;;;;;4.25;2.28;;;33.40;46.50;;;;;;10466224;28;20045;-35
2023/06/19 17:04:27;;;;;;;5.57;2.50;;;33.40;53.60;;;;;;10473033;28;20536;-33
2023/06/19 17:09:31;;;;;;;4.20;2.60;;;33.20;43.70;;;;;;10483366;28;20048;-34
2023/06/19 17:14:33;;;;;;;3.42;2.17;;;32.60;51.00;;;;;;10479241;28;20057;-41
2023/06/19 17:19:35;;;;;;;4.28;2.00;;;33.30;50.40;;;;;;10479047;28;20068;-39
2023/06/19 17:24:39;;;;;;;3.95;2.20;;;33.40;49.40;;;;;;10475676;28;20061;-34
2023/06/19 17:29:41;;;;;;;7.28;2.63;;;33.30;49.20;;;;;;10484385;28;20049;-37
2023/06/19 17:34:43;;;;;;;5.40;2.35;;;33.30;48.80;;;;;;10487684;28;20088;-35
2023/06/19 17:39:46;;;;;;;3.15;2.10;;;33.20;48.70;;;;;;10477364;28;20099;-38
2023/06/19 17:44:48;;;;;;;3.20;1.80;;;33.10;48.70;;;;;;10480351;28;20477;-39
2023/06/19 17:49:50;;;;;;;2.78;2.17;;;33.10;48.50;;;;;;10480934;28;20073;-37
2023/06/19 17:54:54;;;;;;;3.03;2.10;;;33.10;48.40;;;;;;10486946;28;20634;-32
2023/06/19 17:59:56;;;;;;;3.13;2.05;;;33.00;48.40;;;;;;10475765;28;20516;-33
2023/06/19 18:04:58;;;;;;;3.65;2.28;;;33.00;48.30;;;;;;10487500;28;20096;-35
2023/06/19 18:10:01;;;;;;;3.13;2.17;;;32.90;48.30;;;;;;10483474;28;20079;-32
2023/06/19 18:15:03;;;;;;;3.30;1.95;;;32.90;48.50;;;;;;10484640;28;20152;-33
2023/06/19 18:20:06;;;;;;;3.33;1.98;;;33.30;49.20;;;;;;10480542;28;20048;-38
2023/06/19 18:25:10;;;;;;;2.70;1.88;;;33.30;49.40;;;;;;10476094;28;20044;-34
2023/06/19 18:30:12;;;;;;;4.88;2.53;;;33.20;49.50;;;;;;10476234;28;20072;-33
2023/06/19 18:35:14;;;;;;;2.92;2.15;;;33.20;49.50;;;;;;10479971;28;20045;-36
2023/06/19 18:40:18;;;;;;;2.65;1.92;;;33.20;49.50;;;;;;10472033;28;20319;-34
2023/06/19 18:45:19;;;;;;;5.00;2.40;;;33.20;49.60;;;;;;10487817;28;20143;-32
2023/06/19 18:50:22;;;;;;;3.00;2.22;;;33.20;49.50;;;;;;10465086;28;20124;-32
2023/06/19 18:55:25;;;;;;;2.50;2.05;;;33.00;49.40;;;;;;10477989;28;20068;-34
2023/06/19 19:00:27;;;;;;;4.57;2.30;;;33.00;49.20;;;;;;10470629;28;20133;-35
2023/06/19 19:05:31;;;;;;;5.35;2.25;;;33.00;49.30;;;;;;10472699;28;20094;-34
2023/06/19 19:10:34;;;;;;;3.28;2.00;;;32.80;48.90;;;;;;10471462;28;20071;-34
2023/06/19 19:15:36;;;;;;;3.42;2.30;;;32.80;48.90;;;;;;10474244;28;20086;-32
2023/06/19 19:20:38;;;;;;;3.78;2.50;;;32.70;49.00;;;;;;10475070;28;20189;-35
2023/06/19 19:25:41;;;;;;;3.95;1.85;;;32.70;49.00;;;;;;10481363;28;20090;-36
2023/06/19 19:30:45;;;;;;;3.33;2.35;;;32.60;48.80;;;;;;10482909;28;20109;-36
2023/06/19 19:35:47;;;;;;;4.55;2.20;;;32.50;48.70;;;;;;10481281;28;20057;-41
2023/06/19 19:40:50;;;;;;;6.00;2.35;;;32.40;48.70;;;;;;10481655;28;20049;-35
2023/06/19 19:45:52;;;;;;;6.78;2.80;;;32.30;48.60;;;;;;10479617;28;20200;-33
2023/06/19 19:50:55;;;;;;;6.65;2.80;;;32.20;48.50;;;;;;10477052;28;20056;-32
2023/06/19 19:55:58;;;;;;;8.30;2.72;;;32.10;48.60;;;;;;10488699;28;20543;-34
2023/06/19 20:01:00;;;;;;;9.73;2.92;;;31.90;48.40;;;;;;10480993;28;20080;-33
2023/06/19 20:06:02;;;;;;;9.40;3.03;;;31.80;48.40;;;;;;10488283;28;20053;-34
2023/06/19 20:11:05;;;;;;;8.82;2.55;;;31.80;48.50;;;;;;10480782;28;20498;-33
2023/06/19 20:16:09;;;;;;;10.30;3.05;;;31.70;48.40;;;;;;10484568;28;20084;-37
2023/06/19 20:21:11;;;;;;;11.57;3.42;;;31.60;48.40;;;;;;10487825;28;20062;-37
2023/06/19 20:26:15;;;;;;;11.55;3.53;;;31.50;48.40;;;;;;10477091;28;20076;-35
2023/06/19 20:31:17;;;;;;;8.98;3.50;;;31.60;48.70;;;;;;10484973;28;20048;-33
2023/06/19 20:36:21;;;;;;;12.40;3.95;;;31.50;48.90;;;;;;10484151;28;20481;-34
2023/06/19 20:41:25;;;;;;;14.93;3.70;;;31.60;49.90;;;;;;10476709;28;20099;-33
2023/06/19 20:46:27;;;;;;;11.43;3.55;;;31.50;49.30;;;;;;10484270;28;20132;-38
2023/06/19 20:51:29;;;;;;;13.82;4.15;;;31.40;49.30;;;;;;10488760;28;20044;-40
2023/06/19 20:56:32;;;;;;;8.15;3.00;;;31.30;49.50;;;;;;10478617;28;20194;-40
2023/06/19 21:01:34;;;;;;;8.15;2.97;;;31.20;49.20;;;;;;10492926;28;20076;-34
2023/06/19 21:06:36;;;;;;;7.80;2.90;;;31.20;49.10;;;;;;10486874;28;20125;-35
2023/06/19 21:11:40;;;;;;;8.02;3.33;;;31.20;49.00;;;;;;10477157;28;20068;-34
2023/06/19 21:16:42;;;;;;;7.35;3.22;;;31.20;49.10;;;;;;10474638;28;20048;-37
2023/06/19 21:21:44;;;;;;;5.75;2.72;;;31.00;48.90;;;;;;10475051;28;20052;-35
2023/06/19 21:26:47;;;;;;;6.65;2.42;;;31.00;48.80;;;;;;10475443;28;20445;-31
2023/06/19 21:31:49;;;;;;;10.60;3.20;;;30.90;48.80;;;;;;10480234;28;20123;-32
2023/06/19 21:36:51;;;;;;;5.13;2.70;;;30.90;48.80;;;;;;10479129;28;20076;-40
2023/06/19 21:41:55;;;;;;;9.25;3.00;;;30.90;48.90;;;;;;10484908;28;20057;-34
2023/06/19 21:46:57;;;;;;;5.90;2.70;;;30.80;48.80;;;;;;10453358;28;20115;-33
2023/06/19 21:51:58;;;;;;;8.13;2.38;;;30.70;48.70;;;;;;10493098;28;20055;-32
2023/06/19 21:57:02;;;;;;;4.55;2.15;;;30.70;48.80;;;;;;10483848;28;20119;-34
2023/06/19 22:02:04;;;;;;;6.25;2.53;;;30.60;48.80;;;;;;10483572;28;20462;-33
2023/06/19 22:07:07;;;;;;;4.55;2.58;;;30.60;48.70;;;;;;10480776;28;20128;-33
2023/06/19 22:12:11;;;;;;;5.38;2.45;;;30.50;48.80;;;;;;10484390;28;20472;-33
2023/06/19 22:17:13;;;;;;;5.00;2.45;;;30.50;48.70;;;;;;10498547;28;20049;-33
2023/06/19 22:22:14;;;;;;;4.57;2.53;;;30.40;48.60;;;;;;10479629;28;20053;-36
2023/06/19 22:27:18;;;;;;;5.05;2.40;;;30.40;48.70;;;;;;10466120;28;20125;-32
2023/06/19 22:32:20;;;;;;;3.30;2.38;;;30.30;48.60;;;;;;10473126;28;20497;-33
2023/06/19 22:37:21;;;;;;;3.40;2.45;;;30.30;48.70;;;;;;10481083;28;20155;-37
2023/06/19 22:42:25;;;;;;;2.83;2.28;;;30.30;48.70;;;;;;10467434;28;20064;-34
2023/06/19 22:47:26;;;;;;;5.47;2.40;;;30.20;48.80;;;;;;10468255;28;20044;-33
2023/06/19 22:52:28;;;;;;;4.55;2.40;;;30.20;48.80;;;;;;10474846;28;20094;-33
2023/06/19 22:57:34;;;;;;;4.82;2.60;;;30.10;48.80;;;;;;10473759;28;20080;-33
2023/06/19 23:02:36;;;;;;;4.40;2.58;;;30.10;48.80;;;;;;10475257;28;20055;-33
2023/06/19 23:07:37;;;;;;;5.25;2.50;;;30.00;48.80;;;;;;10463658;28;20127;-34
2023/06/19 23:12:41;;;;;;;5.95;2.35;;;30.00;48.90;;;;;;10466816;28;20068;-39
2023/06/19 23:17:43;;;;;;;4.60;2.35;;;29.90;48.90;;;;;;10481797;28;20545;-32
2023/06/19 23:22:47;;;;;;;3.83;2.60;;;29.90;49.00;;;;;;10466947;28;20133;-31
2023/06/19 23:27:53;;;;;;;6.13;2.42;;;29.90;49.00;;;;;;10476926;28;20041;-31
2023/06/19 23:32:55;;;;;;;5.40;2.42;;;29.80;49.00;;;;;;10489061;28;20123;-35
2023/06/19 23:37:57;;;;;;;4.45;2.40;;;29.80;49.60;;;;;;10476387;28;20102;-32
2023/06/19 23:43:00;;;;;;;3.08;2.35;;;29.70;49.10;;;;;;10482476;28;20413;-32
2023/06/19 23:48:02;;;;;;;3.72;2.90;;;29.70;49.10;;;;;;10470092;28;20505;-32
2023/06/19 23:53:04;;;;;;;3.45;2.70;;;29.60;49.20;;;;;;10472490;28;20046;-37
2023/06/19 23:58:08;;;;;;;3.95;2.88;;;29.60;49.30;;;;;;10489150;28;20060;-33
